^^
Meteo Knjazevac Station Historical Data
Daily Summary for January 8, 2022 Units:  Both    English   Metric
Daily Weekly Monthly Yearly Custom
  High: Low: Average:
Temperature: 92.9 °F /  33.8 °C 64 °F /  17.8 °C 77.7 °F /  25.4 °C
Dew Point: 72.6 °F /  22.6 °C 61.6 °F /  16.4 °C 65.8 °F /  18.8 °C
Humidity: 98.8% 39.9% 71%
Wind Speed: 15mph /  24.1km/h - 4.6mph /  7.4km/h
Wind Gust: 18mph /  29km/h - -
Wind- - SSE
Pressure: 30.12 in /  1019.9 hPa 30.01 in /  1016.1 hPa -
Precipitation: 0.00 in /  0 mm    
Historical Graphs
 
 
Tabular Data for January 8, 2022
Time Temperature Dew Point Pressure Wind Wind Speed Wind Gust Humidity Rainfall Rate (Hourly) solar Conditions
00:03 68.5 °F /  20.3 °C 66.4 °F /  19.1 °C 30.06in /  1017.8hPa ESE 2.3mph /  3.7km/h 2mph /  3.2km/h 93% 0.00in /  0mm 0 W/m2
00:09 68.4 °F /  20.2 °C 66.3 °F /  19.1 °C 30.07in /  1018.2hPa ESE 2.8mph /  4.5km/h 3mph /  4.8km/h 93% 0.00in /  0mm 0 W/m2
00:14 68.3 °F /  20.2 °C 66.2 °F /  19 °C 30.07in /  1018.2hPa SE 3.5mph /  5.6km/h 3.1mph /  5km/h 93% 0.00in /  0mm 0 W/m2
00:19 68.2 °F /  20.1 °C 66.1 °F /  18.9 °C 30.06in /  1017.8hPa South 2.9mph /  4.7km/h 5mph /  8km/h 93% 0.00in /  0mm 0 W/m2
00:24 68.2 °F /  20.1 °C 66.1 °F /  18.9 °C 30.06in /  1017.8hPa WSW 2mph /  3.2km/h 3mph /  4.8km/h 93% 0.00in /  0mm 0 W/m2
00:29 68.2 °F /  20.1 °C 66 °F /  18.9 °C 30.07in /  1018.2hPa WNW 1.7mph /  2.7km/h 2mph /  3.2km/h 92.6% 0.00in /  0mm 0 W/m2
00:34 68.2 °F /  20.1 °C 66.1 °F /  18.9 °C 30.07in /  1018.2hPa West 2.3mph /  3.7km/h 2mph /  3.2km/h 93% 0.00in /  0mm 0 W/m2
00:39 68.1 °F /  20.1 °C 66 °F /  18.9 °C 30.06in /  1017.8hPa SW 2mph /  3.2km/h 2mph /  3.2km/h 93% 0.00in /  0mm 0 W/m2
00:44 67.9 °F /  19.9 °C 65.9 °F /  18.8 °C 30.07in /  1018.2hPa SW 2mph /  3.2km/h 2mph /  3.2km/h 93.2% 0.00in /  0mm 0 W/m2
00:49 67.8 °F /  19.9 °C 65.9 °F /  18.8 °C 30.07in /  1018.2hPa SE 2.1mph /  3.4km/h 2mph /  3.2km/h 93.7% 0.00in /  0mm 0 W/m2
00:54 67.7 °F /  19.8 °C 65.6 °F /  18.7 °C 30.07in /  1018.2hPa SSE 1.3mph /  2.1km/h 2mph /  3.2km/h 93% 0.00in /  0mm 0 W/m2
00:59 67.6 °F /  19.8 °C 65.8 °F /  18.8 °C 30.07in /  1018.2hPa NNW 0.7mph /  1.1km/h 2mph /  3.2km/h 93.8% 0.00in /  0mm 0 W/m2
01:04 67.5 °F /  19.7 °C 65.7 °F /  18.7 °C 30.07in /  1018.2hPa NNE 2.1mph /  3.4km/h 2mph /  3.2km/h 94% 0.00in /  0mm 0 W/m2
01:09 67.3 °F /  19.6 °C 65.5 °F /  18.6 °C 30.07in /  1018.2hPa ENE 1mph /  1.6km/h 3mph /  4.8km/h 94% 0.00in /  0mm 0 W/m2
01:14 67.3 °F /  19.6 °C 65.5 °F /  18.6 °C 30.07in /  1018.2hPa NNE 2mph /  3.2km/h 2mph /  3.2km/h 94% 0.00in /  0mm 0 W/m2
01:19 67.2 °F /  19.6 °C 65.4 °F /  18.6 °C 30.07in /  1018.2hPa West 2.3mph /  3.7km/h 2mph /  3.2km/h 94% 0.00in /  0mm 0 W/m2
01:24 66.9 °F /  19.4 °C 65.2 °F /  18.4 °C 30.07in /  1018.2hPa SW 1.7mph /  2.7km/h 2mph /  3.2km/h 94.3% 0.00in /  0mm 0 W/m2
01:29 66.9 °F /  19.4 °C 65.2 °F /  18.4 °C 30.07in /  1018.2hPa WSW 0.9mph /  1.4km/h 3mph /  4.8km/h 94.3% 0.00in /  0mm 0 W/m2
01:34 66.8 °F /  19.3 °C 65.3 °F /  18.5 °C 30.07in /  1018.2hPa North 0.4mph /  0.6km/h 2mph /  3.2km/h 95% 0.00in /  0mm 0 W/m2
01:39 66.7 °F /  19.3 °C 65.3 °F /  18.5 °C 30.06in /  1017.8hPa NNW 1.9mph /  3.1km/h 1.3mph /  2.1km/h 95% 0.00in /  0mm 0 W/m2
01:44 66.6 °F /  19.2 °C 65.1 °F /  18.4 °C 30.07in /  1018.2hPa NW 1.6mph /  2.6km/h 2mph /  3.2km/h 95% 0.00in /  0mm 0 W/m2
01:49 66.5 °F /  19.2 °C 65 °F /  18.3 °C 30.07in /  1018.2hPa NNE 1mph /  1.6km/h 2mph /  3.2km/h 95% 0.00in /  0mm 0 W/m2
01:54 66.4 °F /  19.1 °C 64.9 °F /  18.3 °C 30.07in /  1018.2hPa NNE 1.8mph /  2.9km/h 2mph /  3.2km/h 95% 0.00in /  0mm 0 W/m2
01:59 66.4 °F /  19.1 °C 64.9 °F /  18.3 °C 30.07in /  1018.2hPa NNE 1.3mph /  2.1km/h 2mph /  3.2km/h 95% 0.00in /  0mm 0 W/m2
02:04 66.2 °F /  19 °C 64.7 °F /  18.2 °C 30.07in /  1018.2hPa NNE 1.2mph /  1.9km/h 1.3mph /  2.1km/h 95% 0.00in /  0mm 0 W/m2
02:09 66.1 °F /  18.9 °C 64.6 °F /  18.1 °C 30.07in /  1018.2hPa NNE 0.8mph /  1.3km/h 2mph /  3.2km/h 95% 0.00in /  0mm 0 W/m2
02:14 66 °F /  18.9 °C 64.5 °F /  18.1 °C 30.07in /  1018.2hPa North 0.8mph /  1.3km/h 1mph /  1.6km/h 95% 0.00in /  0mm 0 W/m2
02:19 66 °F /  18.9 °C 64.5 °F /  18.1 °C 30.07in /  1018.2hPa SW 1.3mph /  2.1km/h 1mph /  1.6km/h 95% 0.00in /  0mm 0 W/m2
02:24 66 °F /  18.9 °C 64.5 °F /  18.1 °C 30.07in /  1018.2hPa SW 0.7mph /  1.1km/h 2mph /  3.2km/h 95% 0.00in /  0mm 0 W/m2
02:29 65.9 °F /  18.8 °C 64.4 °F /  18 °C 30.07in /  1018.2hPa SW 1.4mph /  2.3km/h 2mph /  3.2km/h 95% 0.00in /  0mm 0 W/m2
02:34 65.7 °F /  18.7 °C 64.2 °F /  17.9 °C 30.07in /  1018.2hPa WSW 1.8mph /  2.9km/h 1.3mph /  2.1km/h 95% 0.00in /  0mm 0 W/m2
02:39 65.7 °F /  18.7 °C 64.2 °F /  17.9 °C 30.07in /  1018.2hPa West 0.4mph /  0.6km/h 2mph /  3.2km/h 95% 0.00in /  0mm 0 W/m2
02:44 65.5 °F /  18.6 °C 64 °F /  17.8 °C 30.07in /  1018.2hPa WNW 0.6mph /  1km/h 1mph /  1.6km/h 95% 0.00in /  0mm 0 W/m2
02:49 65.5 °F /  18.6 °C 64 °F /  17.8 °C 30.07in /  1018.2hPa West 0.5mph /  0.8km/h 0.2mph /  0.3km/h 95.1% 0.00in /  0mm 0 W/m2
02:54 65.4 °F /  18.6 °C 64 °F /  17.8 °C 30.07in /  1018.2hPa West 0.8mph /  1.3km/h 1mph /  1.6km/h 95.2% 0.00in /  0mm 0 W/m2
02:59 65.3 °F /  18.5 °C 63.8 °F /  17.7 °C 30.07in /  1018.2hPa West 0.1mph /  0.2km/h 1mph /  1.6km/h 95% 0.00in /  0mm 0 W/m2
03:04 65.1 °F /  18.4 °C 63.7 °F /  17.6 °C 30.07in /  1018.2hPa WSW 1.9mph /  3.1km/h 1.6mph /  2.6km/h 95% 0.00in /  0mm 0 W/m2
03:09 65.1 °F /  18.4 °C 63.7 °F /  17.6 °C 30.07in /  1018.2hPa WSW 2.3mph /  3.7km/h 2mph /  3.2km/h 95% 0.00in /  0mm 0 W/m2
03:14 64.9 °F /  18.3 °C 63.5 °F /  17.5 °C 30.07in /  1018.2hPa West 2.1mph /  3.4km/h 2mph /  3.2km/h 95% 0.00in /  0mm 0 W/m2
03:19 64.8 °F /  18.2 °C 63.4 °F /  17.4 °C 30.07in /  1018.2hPa West 2.2mph /  3.5km/h 2mph /  3.2km/h 95% 0.00in /  0mm 0 W/m2
03:24 64.7 °F /  18.2 °C 63.3 °F /  17.4 °C 30.07in /  1018.2hPa West 1.6mph /  2.6km/h 2mph /  3.2km/h 95.3% 0.00in /  0mm 0 W/m2
03:29 64.6 °F /  18.1 °C 63.4 °F /  17.4 °C 30.07in /  1018.2hPa West 1.5mph /  2.4km/h 2mph /  3.2km/h 96% 0.00in /  0mm 0 W/m2
03:34 64.6 °F /  18.1 °C 63.4 °F /  17.4 °C 30.08in /  1018.5hPa West 3mph /  4.8km/h 3mph /  4.8km/h 96% 0.00in /  0mm 0 W/m2
03:39 64.4 °F /  18 °C 63.2 °F /  17.3 °C 30.08in /  1018.5hPa WNW 2.9mph /  4.7km/h 3mph /  4.8km/h 96% 0.00in /  0mm 0 W/m2
03:44 64.6 °F /  18.1 °C 63.4 °F /  17.4 °C 30.07in /  1018.2hPa West 1.7mph /  2.7km/h 3mph /  4.8km/h 96% 0.00in /  0mm 0 W/m2
03:49 64.6 °F /  18.1 °C 63.4 °F /  17.4 °C 30.07in /  1018.2hPa West 1mph /  1.6km/h 2mph /  3.2km/h 96% 0.00in /  0mm 0 W/m2
03:54 64.6 °F /  18.1 °C 63.4 °F /  17.4 °C 30.07in /  1018.2hPa WNW 0.2mph /  0.3km/h 1mph /  1.6km/h 96% 0.00in /  0mm 0 W/m2
03:59 64.6 °F /  18.1 °C 63.4 °F /  17.4 °C 30.07in /  1018.2hPa Calm     96% 0.00in /  0mm 0 W/m2
04:04 64.6 °F /  18.1 °C 63.4 °F /  17.4 °C 30.07in /  1018.2hPa WSW 0.7mph /  1.1km/h 0.2mph /  0.3km/h 96% 0.00in /  0mm 0 W/m2
04:09 64.6 °F /  18.1 °C 63.7 °F /  17.6 °C 30.08in /  1018.5hPa NW 2.9mph /  4.7km/h 2.9mph /  4.7km/h 97.1% 0.00in /  0mm 0 W/m2
04:14 64.8 °F /  18.2 °C 64.2 °F /  17.9 °C 30.07in /  1018.2hPa NNE 1.9mph /  3.1km/h 4mph /  6.4km/h 98% 0.00in /  0mm 0 W/m2
04:19 64.8 °F /  18.2 °C 64.2 °F /  17.9 °C 30.07in /  1018.2hPa NNE 0.7mph /  1.1km/h 2mph /  3.2km/h 98% 0.00in /  0mm 0 W/m2
04:24 64.8 °F /  18.2 °C 63.8 °F /  17.7 °C 30.07in /  1018.2hPa North 0.3mph /  0.5km/h 2mph /  3.2km/h 96.7% 0.00in /  0mm 0 W/m2
04:29 64.8 °F /  18.2 °C 63.6 °F /  17.6 °C 30.08in /  1018.5hPa North 1.1mph /  1.8km/h 1.1mph /  1.8km/h 96% 0.00in /  0mm 0 W/m2
04:34 64.6 °F /  18.1 °C 63.4 °F /  17.4 °C 30.08in /  1018.5hPa NW 2.2mph /  3.5km/h 2mph /  3.2km/h 96% 0.00in /  0mm 0 W/m2
04:39 64.6 °F /  18.1 °C 63.4 °F /  17.4 °C 30.08in /  1018.5hPa WNW 1.6mph /  2.6km/h 2mph /  3.2km/h 96% 0.00in /  0mm 0 W/m2
04:44 64.4 °F /  18 °C 63.2 °F /  17.3 °C 30.08in /  1018.5hPa NW 1.8mph /  2.9km/h 1.6mph /  2.6km/h 96% 0.00in /  0mm 0 W/m2
04:49 64.3 °F /  17.9 °C 63.1 °F /  17.3 °C 30.08in /  1018.5hPa NW 1.7mph /  2.7km/h 2mph /  3.2km/h 96% 0.00in /  0mm 0 W/m2
04:54 64.2 °F /  17.9 °C 63.1 °F /  17.3 °C 30.08in /  1018.5hPa West 2.3mph /  3.7km/h 2mph /  3.2km/h 96.1% 0.00in /  0mm 0 W/m2
04:59 64.2 °F /  17.9 °C 63.6 °F /  17.6 °C 30.08in /  1018.5hPa West 2.3mph /  3.7km/h 2mph /  3.2km/h 98% 0.00in /  0mm 0 W/m2
05:04 64.1 °F /  17.8 °C 63.5 °F /  17.5 °C 30.08in /  1018.5hPa WNW 2.5mph /  4km/h 2mph /  3.2km/h 98% 0.00in /  0mm 0 W/m2
05:09 64.1 °F /  17.8 °C 63.5 °F /  17.5 °C 30.08in /  1018.5hPa WNW 2mph /  3.2km/h 3mph /  4.8km/h 98% 0.00in /  0mm 0 W/m2
05:14 64.2 °F /  17.9 °C 63.6 °F /  17.6 °C 30.08in /  1018.5hPa WNW 0.4mph /  0.6km/h 2mph /  3.2km/h 98% 0.00in /  0mm 0 W/m2
05:19 64.2 °F /  17.9 °C 63.7 °F /  17.6 °C 30.08in /  1018.5hPa Calm   1mph /  1.6km/h 98.4% 0.00in /  0mm 0 W/m2
05:24 64.2 °F /  17.9 °C 63.8 °F /  17.7 °C 30.08in /  1018.5hPa North 0.4mph /  0.6km/h   98.8% 0.00in /  0mm 1 W/m2
05:29 64.2 °F /  17.9 °C 63.4 °F /  17.4 °C 30.08in /  1018.5hPa North 0.2mph /  0.3km/h 1mph /  1.6km/h 97.3% 0.00in /  0mm 3 W/m2
05:34 64.2 °F /  17.9 °C 63.1 °F /  17.3 °C 30.08in /  1018.5hPa North 0.5mph /  0.8km/h 0.2mph /  0.3km/h 96% 0.00in /  0mm 4 W/m2
05:39 64.1 °F /  17.8 °C 63 °F /  17.2 °C 30.08in /  1018.5hPa NNW 0.3mph /  0.5km/h 1mph /  1.6km/h 96% 0.00in /  0mm 7 W/m2
05:44 64 °F /  17.8 °C 62.9 °F /  17.2 °C 30.09in /  1018.8hPa WNW 0.4mph /  0.6km/h 1mph /  1.6km/h 96% 0.00in /  0mm 9 W/m2
05:49 64 °F /  17.8 °C 62.9 °F /  17.2 °C 30.09in /  1018.8hPa Calm   1mph /  1.6km/h 96% 0.00in /  0mm 13 W/m2
05:54 64 °F /  17.8 °C 62.9 °F /  17.2 °C 30.09in /  1018.8hPa WSW 1mph /  1.6km/h 0.9mph /  1.4km/h 96% 0.00in /  0mm 17 W/m2
05:59 64 °F /  17.8 °C 63.1 °F /  17.3 °C 30.09in /  1018.8hPa West 1.3mph /  2.1km/h 2mph /  3.2km/h 96.7% 0.00in /  0mm 20 W/m2
06:04 64 °F /  17.8 °C 63.5 °F /  17.5 °C 30.09in /  1018.8hPa West 1.6mph /  2.6km/h 2mph /  3.2km/h 98% 0.00in /  0mm 22 W/m2
06:09 64 °F /  17.8 °C 63.5 °F /  17.5 °C 30.09in /  1018.8hPa WNW 1.5mph /  2.4km/h 1.3mph /  2.1km/h 98% 0.00in /  0mm 25 W/m2
06:14 64 °F /  17.8 °C 63.5 °F /  17.5 °C 30.09in /  1018.8hPa WNW 1.6mph /  2.6km/h 2mph /  3.2km/h 98% 0.00in /  0mm 29 W/m2
06:19 64 °F /  17.8 °C 63.5 °F /  17.5 °C 30.09in /  1018.8hPa NW 0.9mph /  1.4km/h 2mph /  3.2km/h 98% 0.00in /  0mm 34 W/m2
06:24 64.1 °F /  17.8 °C 63.5 °F /  17.5 °C 30.09in /  1018.8hPa Calm   1mph /  1.6km/h 98% 0.00in /  0mm 38 W/m2
06:29 64.2 °F /  17.9 °C 63.6 °F /  17.6 °C 30.09in /  1018.8hPa NW 0.8mph /  1.3km/h 0.7mph /  1.1km/h 98% 0.00in /  0mm 41 W/m2
06:34 64.2 °F /  17.9 °C 63.6 °F /  17.6 °C 30.09in /  1018.8hPa WNW 1.8mph /  2.9km/h 2mph /  3.2km/h 98% 0.00in /  0mm 45 W/m2
06:39 64.3 °F /  17.9 °C 63.7 °F /  17.6 °C 30.09in /  1018.8hPa WSW 1mph /  1.6km/h 2mph /  3.2km/h 98% 0.00in /  0mm 47 W/m2
06:44 64.3 °F /  17.9 °C 63.7 °F /  17.6 °C 30.09in /  1018.8hPa West 0.6mph /  1km/h 1mph /  1.6km/h 98% 0.00in /  0mm 57 W/m2
06:49 64.4 °F /  18 °C 63.8 °F /  17.7 °C 30.09in /  1018.8hPa NW 2.8mph /  4.5km/h 2mph /  3.2km/h 98% 0.00in /  0mm 61 W/m2
06:54 64.6 °F /  18.1 °C 64 °F /  17.8 °C 30.10in /  1019.2hPa North 2.3mph /  3.7km/h 3mph /  4.8km/h 98% 0.00in /  0mm 63 W/m2
06:59 64.8 °F /  18.2 °C 64.2 °F /  17.9 °C 30.10in /  1019.2hPa NNE 1.3mph /  2.1km/h 3mph /  4.8km/h 98% 0.00in /  0mm 69 W/m2
07:04 64.9 °F /  18.3 °C 64.4 °F /  18 °C 30.10in /  1019.2hPa NNE 0.9mph /  1.4km/h 2mph /  3.2km/h 98% 0.00in /  0mm 82 W/m2
07:09 65 °F /  18.3 °C 64 °F /  17.8 °C 30.10in /  1019.2hPa North 0.1mph /  0.2km/h 1mph /  1.6km/h 96.3% 0.00in /  0mm 165 W/m2
07:14 65.1 °F /  18.4 °C 64 °F /  17.8 °C 30.10in /  1019.2hPa West 0.6mph /  1km/h   96% 0.00in /  0mm 192 W/m2
07:19 65.2 °F /  18.4 °C 64 °F /  17.8 °C 30.10in /  1019.2hPa WNW 0.6mph /  1km/h 1mph /  1.6km/h 96% 0.00in /  0mm 194 W/m2
07:23 65.3 °F /  18.5 °C 64.1 °F /  17.8 °C 30.10in /  1019.2hPa WNW 0.7mph /  1.1km/h 1mph /  1.6km/h 96% 0.00in /  0mm 221 W/m2
07:29 65.6 °F /  18.7 °C 64.4 °F /  18 °C 30.10in /  1019.2hPa Calm   1mph /  1.6km/h 96% 0.00in /  0mm 229 W/m2
07:34 65.8 °F /  18.8 °C 64.7 °F /  18.2 °C 30.10in /  1019.2hPa Calm     96% 0.00in /  0mm 247 W/m2
07:39 66 °F /  18.9 °C 64.8 °F /  18.2 °C 30.11in /  1019.5hPa Calm     96% 0.00in /  0mm 274 W/m2
07:43 66.2 °F /  19 °C 65 °F /  18.3 °C 30.11in /  1019.5hPa Calm     96% 0.00in /  0mm 274 W/m2
07:49 66.6 °F /  19.2 °C 65.4 °F /  18.6 °C 30.11in /  1019.5hPa SSW 2mph /  3.2km/h 2mph /  3.2km/h 95.9% 0.00in /  0mm 243 W/m2
07:54 67.1 °F /  19.5 °C 65.6 °F /  18.7 °C 30.10in /  1019.2hPa East 1.3mph /  2.1km/h 2mph /  3.2km/h 95% 0.00in /  0mm 203 W/m2
07:59 67.4 °F /  19.7 °C 65.9 °F /  18.8 °C 30.11in /  1019.5hPa NE 1.6mph /  2.6km/h 2mph /  3.2km/h 95% 0.00in /  0mm 121 W/m2
08:04 67.6 °F /  19.8 °C 66.1 °F /  18.9 °C 30.11in /  1019.5hPa Calm   2mph /  3.2km/h 94.7% 0.00in /  0mm 132 W/m2
08:09 67.8 °F /  19.9 °C 66.1 °F /  18.9 °C 30.11in /  1019.5hPa Calm     94.4% 0.00in /  0mm 234 W/m2
08:14 67.9 °F /  19.9 °C 66.1 °F /  18.9 °C 30.11in /  1019.5hPa Calm     94% 0.00in /  0mm 185 W/m2
08:19 68.2 °F /  20.1 °C 66.4 °F /  19.1 °C 30.11in /  1019.5hPa North 0.8mph /  1.3km/h 0.2mph /  0.3km/h 94% 0.00in /  0mm 203 W/m2
08:24 68.5 °F /  20.3 °C 66.6 °F /  19.2 °C 30.11in /  1019.5hPa NNE 3.2mph /  5.1km/h 2.2mph /  3.5km/h 93.8% 0.00in /  0mm 212 W/m2
08:29 68.8 °F /  20.4 °C 66.7 °F /  19.3 °C 30.11in /  1019.5hPa NNE 2.5mph /  4km/h 3mph /  4.8km/h 93% 0.00in /  0mm 247 W/m2
08:34 69.3 °F /  20.7 °C 67.1 °F /  19.5 °C 30.11in /  1019.5hPa NNE 0.4mph /  0.6km/h 3mph /  4.8km/h 93% 0.00in /  0mm 299 W/m2
08:39 69.8 °F /  21 °C 67.1 °F /  19.5 °C 30.11in /  1019.5hPa North 0.6mph /  1km/h 0.2mph /  0.3km/h 91% 0.00in /  0mm 423 W/m2
08:44 70.3 °F /  21.3 °C 67.2 °F /  19.6 °C 30.11in /  1019.5hPa NNE 4.1mph /  6.6km/h 2.9mph /  4.7km/h 90% 0.00in /  0mm 487 W/m2
08:49 71.2 °F /  21.8 °C 68 °F /  20 °C 30.12in /  1019.9hPa NE 1.7mph /  2.7km/h 5mph /  8km/h 89.6% 0.00in /  0mm 545 W/m2
08:54 72.1 °F /  22.3 °C 68.3 °F /  20.2 °C 30.12in /  1019.9hPa ENE 3.4mph /  5.5km/h 2mph /  3.2km/h 87.8% 0.00in /  0mm 564 W/m2
08:59 72.7 °F /  22.6 °C 68.2 °F /  20.1 °C 30.12in /  1019.9hPa ENE 3.8mph /  6.1km/h 5mph /  8km/h 86% 0.00in /  0mm 566 W/m2
09:04 73.2 °F /  22.9 °C 68.9 °F /  20.5 °C 30.12in /  1019.9hPa ENE 3.5mph /  5.6km/h 5mph /  8km/h 86.5% 0.00in /  0mm 577 W/m2
09:09 74 °F /  23.3 °C 69.5 °F /  20.8 °C 30.12in /  1019.9hPa NNE 4.4mph /  7.1km/h 4mph /  6.4km/h 85.8% 0.00in /  0mm 576 W/m2
09:14 74.9 °F /  23.8 °C 69.6 °F /  20.9 °C 30.12in /  1019.9hPa NNE 6.5mph /  10.5km/h 6mph /  9.7km/h 83.8% 0.00in /  0mm 589 W/m2
09:19 75.4 °F /  24.1 °C 70 °F /  21.1 °C 30.12in /  1019.9hPa NNE 5.9mph /  9.5km/h 8mph /  12.9km/h 83.4% 0.00in /  0mm 603 W/m2
09:24 76 °F /  24.4 °C 69.9 °F /  21.1 °C 30.12in /  1019.9hPa NNE 7.4mph /  11.9km/h 6mph /  9.7km/h 81.5% 0.00in /  0mm 621 W/m2
09:29 76.4 °F /  24.7 °C 70 °F /  21.1 °C 30.11in /  1019.5hPa NNE 3.8mph /  6.1km/h 8mph /  12.9km/h 80.7% 0.00in /  0mm 630 W/m2
09:34 76.8 °F /  24.9 °C 70.4 °F /  21.3 °C 30.12in /  1019.9hPa NNE 5.1mph /  8.2km/h 5.1mph /  8.2km/h 80.6% 0.00in /  0mm 639 W/m2
09:39 77.4 °F /  25.2 °C 70.6 °F /  21.4 °C 30.11in /  1019.5hPa NNE 7.1mph /  11.4km/h 8mph /  12.9km/h 79.5% 0.00in /  0mm 653 W/m2
09:44 78.2 °F /  25.7 °C 71 °F /  21.7 °C 30.11in /  1019.5hPa NNE 7.5mph /  12.1km/h 9mph /  14.5km/h 78.8% 0.00in /  0mm 669 W/m2
09:49 78.6 °F /  25.9 °C 71.2 °F /  21.8 °C 30.11in /  1019.5hPa North 7.7mph /  12.4km/h 9mph /  14.5km/h 78.1% 0.00in /  0mm 682 W/m2
09:54 79.2 °F /  26.2 °C 71.3 °F /  21.8 °C 30.11in /  1019.5hPa North 9.6mph /  15.4km/h 9mph /  14.5km/h 77% 0.00in /  0mm 695 W/m2
09:59 79.8 °F /  26.6 °C 71.7 °F /  22.1 °C 30.11in /  1019.5hPa North 8.5mph /  13.7km/h 12mph /  19.3km/h 76.4% 0.00in /  0mm 709 W/m2
10:04 80.6 °F /  27 °C 72.1 °F /  22.3 °C 30.11in /  1019.5hPa NNE 8.9mph /  14.3km/h 9mph /  14.5km/h 75.4% 0.00in /  0mm 728 W/m2
10:09 81.3 °F /  27.4 °C 72.3 °F /  22.4 °C 30.10in /  1019.2hPa North 6.9mph /  11.1km/h 10mph /  16.1km/h 74.2% 0.00in /  0mm 741 W/m2
10:14 81.8 °F /  27.7 °C 72.4 °F /  22.4 °C 30.10in /  1019.2hPa North 10.6mph /  17.1km/h 8mph /  12.9km/h 73.2% 0.00in /  0mm 756 W/m2
10:19 82.1 °F /  27.8 °C 72.2 °F /  22.3 °C 30.10in /  1019.2hPa North 10.5mph /  16.9km/h 12mph /  19.3km/h 72% 0.00in /  0mm 763 W/m2
10:24 82.6 °F /  28.1 °C 72.2 °F /  22.3 °C 30.10in /  1019.2hPa North 10.5mph /  16.9km/h 10mph /  16.1km/h 70.8% 0.00in /  0mm 773 W/m2
10:29 83 °F /  28.3 °C 72.4 °F /  22.4 °C 30.10in /  1019.2hPa North 8.5mph /  13.7km/h 13mph /  20.9km/h 70.4% 0.00in /  0mm 774 W/m2
10:34 83.3 °F /  28.5 °C 71.9 °F /  22.2 °C 30.10in /  1019.2hPa North 11.4mph /  18.3km/h 12mph /  19.3km/h 68.6% 0.00in /  0mm 778 W/m2
10:39 83.3 °F /  28.5 °C 71.8 °F /  22.1 °C 30.10in /  1019.2hPa NNE 10.4mph /  16.7km/h 12mph /  19.3km/h 68.4% 0.00in /  0mm 801 W/m2
10:44 83.3 °F /  28.5 °C 72 °F /  22.2 °C 30.10in /  1019.2hPa NNE 12.1mph /  19.5km/h 12mph /  19.3km/h 68.8% 0.00in /  0mm 807 W/m2
10:49 83.7 °F /  28.7 °C 72.3 °F /  22.4 °C 30.09in /  1018.8hPa North 13mph /  20.9km/h 7.8mph /  12.6km/h 68.6% 0.00in /  0mm 593 W/m2
10:54 84.2 °F /  29 °C 72.5 °F /  22.5 °C 30.09in /  1018.8hPa North 12.5mph /  20.1km/h 14mph /  22.5km/h 68% 0.00in /  0mm 817 W/m2
10:59 84.6 °F /  29.2 °C 72.2 °F /  22.3 °C 30.09in /  1018.8hPa NNE 15mph /  24.1km/h 14mph /  22.5km/h 66.5% 0.00in /  0mm 839 W/m2
11:04 84.7 °F /  29.3 °C 72.6 °F /  22.6 °C 30.09in /  1018.8hPa NNE 12.2mph /  19.6km/h 8.5mph /  13.7km/h 67% 0.00in /  0mm 851 W/m2
11:09 85.4 °F /  29.7 °C 72.2 °F /  22.3 °C 30.09in /  1018.8hPa NNE 14.4mph /  23.2km/h 13mph /  20.9km/h 64.8% 0.00in /  0mm 847 W/m2
11:14 85.7 °F /  29.8 °C 72.2 °F /  22.3 °C 30.09in /  1018.8hPa North 11.6mph /  18.7km/h 16mph /  25.7km/h 64.2% 0.00in /  0mm 869 W/m2
11:19 86 °F /  30 °C 71.9 °F /  22.2 °C 30.09in /  1018.8hPa North 11.3mph /  18.2km/h 13mph /  20.9km/h 63% 0.00in /  0mm 873 W/m2
11:24 86.3 °F /  30.2 °C 72.2 °F /  22.3 °C 30.08in /  1018.5hPa North 11.1mph /  17.9km/h 13mph /  20.9km/h 63% 0.00in /  0mm 888 W/m2
11:29 86.8 °F /  30.4 °C 72.1 °F /  22.3 °C 30.08in /  1018.5hPa North 10.5mph /  16.9km/h 7.6mph /  12.2km/h 61.8% 0.00in /  0mm 897 W/m2
11:34 87.2 °F /  30.7 °C 71.9 °F /  22.2 °C 30.08in /  1018.5hPa North 12.2mph /  19.6km/h 7.8mph /  12.6km/h 60.6% 0.00in /  0mm 904 W/m2
11:39 87.5 °F /  30.8 °C 72.2 °F /  22.3 °C 30.08in /  1018.5hPa North 11.4mph /  18.3km/h 14mph /  22.5km/h 60.6% 0.00in /  0mm 905 W/m2
11:44 87.6 °F /  30.9 °C 71.5 °F /  21.9 °C 30.08in /  1018.5hPa North 11.5mph /  18.5km/h 12mph /  19.3km/h 59% 0.00in /  0mm 893 W/m2
11:49 87.6 °F /  30.9 °C 71.3 °F /  21.8 °C 30.08in /  1018.5hPa NNE 10.3mph /  16.6km/h 15mph /  24.1km/h 58.6% 0.00in /  0mm 918 W/m2
11:54 87.8 °F /  31 °C 71.3 °F /  21.8 °C 30.08in /  1018.5hPa North 9.8mph /  15.8km/h 11mph /  17.7km/h 58.2% 0.00in /  0mm 922 W/m2
11:55 79.5 °F /  26.4 °C 70.9 °F /  21.6 °C 30.11in /  1019.5hPa NNE 6mph /  9.7km/h 12mph /  19.3km/h 75% 0.00in /  0mm 695 W/m2
12:00 80.4 °F /  26.9 °C 72.5 °F /  22.5 °C 30.11in /  1019.5hPa NNE 5mph /  8km/h 9mph /  14.5km/h 77% 0.00in /  0mm 709 W/m2
12:05 81.1 °F /  27.3 °C 72.5 °F /  22.5 °C 30.10in /  1019.2hPa NNE 7mph /  11.3km/h 10mph /  16.1km/h 75% 0.00in /  0mm 728 W/m2
12:10 81.7 °F /  27.6 °C 72.2 °F /  22.3 °C 30.10in /  1019.2hPa North 3mph /  4.8km/h 7mph /  11.3km/h 73% 0.00in /  0mm 741 W/m2
12:15 82 °F /  27.8 °C 72.1 °F /  22.3 °C 30.10in /  1019.2hPa North 7mph /  11.3km/h 12mph /  19.3km/h 72% 0.00in /  0mm 756 W/m2
12:20 82.4 °F /  28 °C 72.5 °F /  22.5 °C 30.10in /  1019.2hPa North 6mph /  9.7km/h 10mph /  16.1km/h 72% 0.00in /  0mm 756 W/m2
12:25 82.8 °F /  28.2 °C 72 °F /  22.2 °C 30.10in /  1019.2hPa North 1mph /  1.6km/h 12mph /  19.3km/h 70% 0.00in /  0mm 773 W/m2
12:30 83.3 °F /  28.5 °C 72.1 °F /  22.3 °C 30.10in /  1019.2hPa North 5mph /  8km/h 8mph /  12.9km/h 69% 0.00in /  0mm 773 W/m2
12:39 88.5 °F /  31.4 °C 69.8 °F /  21 °C 30.10in /  1019.2hPa North 7.9mph /  12.7km/h 12mph /  19.3km/h 54.6% 0.00in /  0mm 778 W/m2
12:44 87.8 °F /  31 °C 70.6 °F /  21.4 °C 30.10in /  1019.2hPa North 7.2mph /  11.6km/h 18mph /  29km/h 57% 0.00in /  0mm 916 W/m2
12:49 88.5 °F /  31.4 °C 68.2 °F /  20.1 °C 30.06in /  1017.8hPa NNW 12.7mph /  20.4km/h 7.6mph /  12.2km/h 51.2% 0.00in /  0mm 824 W/m2
12:54 88 °F /  31.1 °C 68.3 °F /  20.2 °C 30.06in /  1017.8hPa NNW 9.4mph /  15.1km/h 14mph /  22.5km/h 52.4% 0.00in /  0mm 739 W/m2
12:59 87.8 °F /  31 °C 68.6 °F /  20.3 °C 30.06in /  1017.8hPa North 9.6mph /  15.4km/h 10mph /  16.1km/h 53% 0.00in /  0mm 974 W/m2
13:04 88.5 °F /  31.4 °C 68.1 °F /  20.1 °C 30.05in /  1017.5hPa North 12mph /  19.3km/h 12mph /  19.3km/h 51.1% 0.00in /  0mm 980 W/m2
13:09 89.1 °F /  31.7 °C 68.7 °F /  20.4 °C 30.05in /  1017.5hPa North 12.1mph /  19.5km/h 14mph /  22.5km/h 51.1% 0.00in /  0mm 957 W/m2
13:14 89.5 °F /  31.9 °C 68 °F /  20 °C 30.05in /  1017.5hPa NNW 8.8mph /  14.2km/h 14mph /  22.5km/h 49.5% 0.00in /  0mm 962 W/m2
13:19 89.6 °F /  32 °C 67.3 °F /  19.6 °C 30.05in /  1017.5hPa NNW 9.4mph /  15.1km/h 10mph /  16.1km/h 48% 0.00in /  0mm 930 W/m2
13:24 89.9 °F /  32.2 °C 68 °F /  20 °C 30.05in /  1017.5hPa North 9.5mph /  15.3km/h 10mph /  16.1km/h 48.8% 0.00in /  0mm 939 W/m2
13:29 90.2 °F /  32.3 °C 68 °F /  20 °C 30.05in /  1017.5hPa North 9.2mph /  14.8km/h 6.3mph /  10.1km/h 48.2% 0.00in /  0mm 452 W/m2
13:34 89.7 °F /  32.1 °C 67.5 °F /  19.7 °C 30.04in /  1017.2hPa NNE 7.1mph /  11.4km/h 3.6mph /  5.8km/h 48.2% 0.00in /  0mm 661 W/m2
13:39 89.4 °F /  31.9 °C 67.2 °F /  19.6 °C 30.04in /  1017.2hPa East 9.2mph /  14.8km/h 9mph /  14.5km/h 48.1% 0.00in /  0mm 924 W/m2
13:43 89.8 °F /  32.1 °C 67.3 °F /  19.6 °C 30.04in /  1017.2hPa East 10.3mph /  16.6km/h 5.8mph /  9.3km/h 47.8% 0.00in /  0mm 904 W/m2
13:49 90.1 °F /  32.3 °C 67.2 °F /  19.6 °C 30.04in /  1017.2hPa ENE 8mph /  12.9km/h 11mph /  17.7km/h 47.1% 0.00in /  0mm 884 W/m2
13:54 90.5 °F /  32.5 °C 66.4 °F /  19.1 °C 30.04in /  1017.2hPa NE 13mph /  20.9km/h 6mph /  9.7km/h 45.3% 0.00in /  0mm 885 W/m2
13:59 91 °F /  32.8 °C 66.4 °F /  19.1 °C 30.04in /  1017.2hPa ENE 9.3mph /  15km/h 6.7mph /  10.8km/h 44.4% 0.00in /  0mm 889 W/m2
14:03 91.2 °F /  32.9 °C 67.3 °F /  19.6 °C 30.04in /  1017.2hPa East 7.4mph /  11.9km/h 10mph /  16.1km/h 45.6% 0.00in /  0mm 877 W/m2
14:09 91.7 °F /  33.2 °C 67.5 °F /  19.7 °C 30.04in /  1017.2hPa ENE 7.3mph /  11.7km/h 9mph /  14.5km/h 45.3% 0.00in /  0mm 872 W/m2
14:14 91.9 °F /  33.3 °C 67.4 °F /  19.7 °C 30.04in /  1017.2hPa ENE 13.2mph /  21.2km/h 10mph /  16.1km/h 44.8% 0.00in /  0mm 866 W/m2
14:19 92 °F /  33.3 °C 68 °F /  20 °C 30.04in /  1017.2hPa ENE 9.3mph /  15km/h 17mph /  27.4km/h 45.5% 0.00in /  0mm 858 W/m2
14:24 92 °F /  33.3 °C 67.2 °F /  19.6 °C 30.04in /  1017.2hPa ENE 10mph /  16.1km/h 5.4mph /  8.7km/h 44.3% 0.00in /  0mm 850 W/m2
14:28 91.9 °F /  33.3 °C 67.9 °F /  19.9 °C 30.04in /  1017.2hPa ENE 8.4mph /  13.5km/h 13mph /  20.9km/h 45.7% 0.00in /  0mm 851 W/m2
14:34 91.9 °F /  33.3 °C 67.2 °F /  19.6 °C 30.03in /  1016.8hPa ENE 9.3mph /  15km/h 11mph /  17.7km/h 44.4% 0.00in /  0mm 860 W/m2
14:39 91.9 °F /  33.3 °C 66.6 °F /  19.2 °C 30.03in /  1016.8hPa ENE 8.6mph /  13.8km/h 12mph /  19.3km/h 43.6% 0.00in /  0mm 850 W/m2
14:44 92 °F /  33.3 °C 66.7 °F /  19.3 °C 30.03in /  1016.8hPa ENE 10.8mph /  17.4km/h 12mph /  19.3km/h 43.6% 0.00in /  0mm 840 W/m2
14:49 91.9 °F /  33.3 °C 66.2 °F /  19 °C 30.03in /  1016.8hPa ENE 9.5mph /  15.3km/h 16mph /  25.7km/h 43% 0.00in /  0mm 796 W/m2
14:54 91.7 °F /  33.2 °C 65.7 °F /  18.7 °C 30.03in /  1016.8hPa ENE 9.8mph /  15.8km/h 12mph /  19.3km/h 42.6% 0.00in /  0mm 781 W/m2
14:59 91.8 °F /  33.2 °C 66.2 °F /  19 °C 30.03in /  1016.8hPa ENE 11.3mph /  18.2km/h 13mph /  20.9km/h 43.2% 0.00in /  0mm 770 W/m2
15:04 91.9 °F /  33.3 °C 66.6 °F /  19.2 °C 30.03in /  1016.8hPa NE 9.4mph /  15.1km/h 14mph /  22.5km/h 43.5% 0.00in /  0mm 768 W/m2
15:09 92.2 °F /  33.4 °C 67.8 °F /  19.9 °C 30.03in /  1016.8hPa NNE 9.5mph /  15.3km/h 12mph /  19.3km/h 44.9% 0.00in /  0mm 747 W/m2
15:14 92.7 °F /  33.7 °C 66.9 °F /  19.4 °C 30.03in /  1016.8hPa North 9.2mph /  14.8km/h 18mph /  29km/h 43.1% 0.00in /  0mm 735 W/m2
15:19 92.4 °F /  33.6 °C 65.6 °F /  18.7 °C 30.03in /  1016.8hPa NE 7.8mph /  12.6km/h 10mph /  16.1km/h 41.4% 0.00in /  0mm 733 W/m2
15:24 92.6 °F /  33.7 °C 66.5 °F /  19.2 °C 30.03in /  1016.8hPa ENE 8.4mph /  13.5km/h 8mph /  12.9km/h 42.6% 0.00in /  0mm 713 W/m2
15:29 92.9 °F /  33.8 °C 67 °F /  19.4 °C 30.02in /  1016.5hPa NE 5.5mph /  8.9km/h 10mph /  16.1km/h 42.8% 0.00in /  0mm 691 W/m2
15:34 92.9 °F /  33.8 °C 66.4 °F /  19.1 °C 30.02in /  1016.5hPa NNE 5.4mph /  8.7km/h 8mph /  12.9km/h 41.9% 0.00in /  0mm 690 W/m2
15:39 92.6 °F /  33.7 °C 66.2 °F /  19 °C 30.02in /  1016.5hPa NE 10mph /  16.1km/h 6mph /  9.7km/h 42% 0.00in /  0mm 685 W/m2
15:44 92.4 °F /  33.6 °C 66 °F /  18.9 °C 30.02in /  1016.5hPa ENE 7.6mph /  12.2km/h 14mph /  22.5km/h 42% 0.00in /  0mm 672 W/m2
15:49 92.2 °F /  33.4 °C 66.3 °F /  19.1 °C 30.02in /  1016.5hPa ENE 9.9mph /  15.9km/h 10mph /  16.1km/h 42.7% 0.00in /  0mm 667 W/m2
15:54 92.5 °F /  33.6 °C 67.3 °F /  19.6 °C 30.02in /  1016.5hPa East 7.2mph /  11.6km/h 12mph /  19.3km/h 43.9% 0.00in /  0mm 646 W/m2
15:58 92.6 °F /  33.7 °C 67.5 °F /  19.7 °C 30.02in /  1016.5hPa NNE 8.7mph /  14km/h 12mph /  19.3km/h 44% 0.00in /  0mm 606 W/m2
16:04 92.3 °F /  33.5 °C 67.6 °F /  19.8 °C 30.01in /  1016.1hPa NNE 6.2mph /  10km/h 10mph /  16.1km/h 44.6% 0.00in /  0mm 645 W/m2
16:09 92.5 °F /  33.6 °C 67.4 °F /  19.7 °C 30.02in /  1016.5hPa NE 9.7mph /  15.6km/h 10mph /  16.1km/h 44% 0.00in /  0mm 639 W/m2
16:14 92.7 °F /  33.7 °C 67.9 °F /  19.9 °C 30.02in /  1016.5hPa NE 9.9mph /  15.9km/h 12mph /  19.3km/h 44.5% 0.00in /  0mm 635 W/m2
16:19 92.7 °F /  33.7 °C 68.3 °F /  20.2 °C 30.01in /  1016.1hPa NNE 6.9mph /  11.1km/h 10mph /  16.1km/h 45.1% 0.00in /  0mm 645 W/m2
16:24 92.8 °F /  33.8 °C 67.9 °F /  19.9 °C 30.01in /  1016.1hPa North 10.3mph /  16.6km/h 8mph /  12.9km/h 44.2% 0.00in /  0mm 609 W/m2
16:29 92.5 °F /  33.6 °C 66.6 °F /  19.2 °C 30.01in /  1016.1hPa NNE 10mph /  16.1km/h 13mph /  20.9km/h 42.8% 0.00in /  0mm 537 W/m2
16:34 92.1 °F /  33.4 °C 67 °F /  19.4 °C 30.01in /  1016.1hPa NNE 7.7mph /  12.4km/h 12mph /  19.3km/h 43.9% 0.00in /  0mm 527 W/m2
16:39 92.2 °F /  33.4 °C 67.2 °F /  19.6 °C 30.01in /  1016.1hPa NNE 8.4mph /  13.5km/h 10mph /  16.1km/h 44.1% 0.00in /  0mm 512 W/m2
16:44 92.5 °F /  33.6 °C 67.6 °F /  19.8 °C 30.01in /  1016.1hPa NNE 6mph /  9.7km/h 13mph /  20.9km/h 44.4% 0.00in /  0mm 489 W/m2
16:49 92.5 °F /  33.6 °C 67.4 °F /  19.7 °C 30.01in /  1016.1hPa North 8.1mph /  13km/h 9mph /  14.5km/h 44% 0.00in /  0mm 473 W/m2
16:54 92.3 °F /  33.5 °C 67.3 °F /  19.6 °C 30.01in /  1016.1hPa NNE 7.4mph /  11.9km/h 9mph /  14.5km/h 44.1% 0.00in /  0mm 460 W/m2
16:59 92.3 °F /  33.5 °C 67.4 °F /  19.7 °C 30.01in /  1016.1hPa NNE 8.7mph /  14km/h 4.7mph /  7.6km/h 44.2% 0.00in /  0mm 447 W/m2
17:04 92.2 °F /  33.4 °C 67.3 °F /  19.6 °C 30.01in /  1016.1hPa NNE 9.2mph /  14.8km/h 10mph /  16.1km/h 44.4% 0.00in /  0mm 430 W/m2
17:08 92.1 °F /  33.4 °C 67.1 °F /  19.5 °C 30.01in /  1016.1hPa North 8.3mph /  13.4km/h 10mph /  16.1km/h 44% 0.00in /  0mm 413 W/m2
17:14 91.9 °F /  33.3 °C 66.1 °F /  18.9 °C 30.01in /  1016.1hPa NNE 9.3mph /  15km/h 12mph /  19.3km/h 42.8% 0.00in /  0mm 395 W/m2
17:19 91.6 °F /  33.1 °C 66.1 °F /  18.9 °C 30.01in /  1016.1hPa NE 6.9mph /  11.1km/h 10mph /  16.1km/h 43.2% 0.00in /  0mm 372 W/m2
17:24 91.6 °F /  33.1 °C 66.5 °F /  19.2 °C 30.01in /  1016.1hPa NE 6.4mph /  10.3km/h 8mph /  12.9km/h 43.8% 0.00in /  0mm 345 W/m2
17:29 91.6 °F /  33.1 °C 66.7 °F /  19.3 °C 30.01in /  1016.1hPa NNE 7mph /  11.3km/h 12mph /  19.3km/h 44.2% 0.00in /  0mm 329 W/m2
17:34 91.6 °F /  33.1 °C 66.4 °F /  19.1 °C 30.01in /  1016.1hPa North 6.7mph /  10.8km/h 8mph /  12.9km/h 43.8% 0.00in /  0mm 311 W/m2
17:39 91.4 °F /  33 °C 66.2 °F /  19 °C 30.01in /  1016.1hPa NE 8mph /  12.9km/h 9mph /  14.5km/h 43.7% 0.00in /  0mm 290 W/m2
17:44 91.4 °F /  33 °C 66.4 °F /  19.1 °C 30.01in /  1016.1hPa NNE 4.4mph /  7.1km/h 9mph /  14.5km/h 44% 0.00in /  0mm 272 W/m2
17:49 91.4 °F /  33 °C 66 °F /  18.9 °C 30.01in /  1016.1hPa North 5.8mph /  9.3km/h 6mph /  9.7km/h 43.3% 0.00in /  0mm 256 W/m2
17:54 91.1 °F /  32.8 °C 64.3 °F /  17.9 °C 30.01in /  1016.1hPa NE 10.2mph /  16.4km/h 7.4mph /  11.9km/h 41.2% 0.00in /  0mm 235 W/m2
17:59 90.9 °F /  32.7 °C 63.2 °F /  17.3 °C 30.01in /  1016.1hPa NE 7.8mph /  12.6km/h 12mph /  19.3km/h 40% 0.00in /  0mm 218 W/m2
18:04 90.6 °F /  32.6 °C 62.9 °F /  17.2 °C 30.01in /  1016.1hPa ENE 9.1mph /  14.6km/h 9mph /  14.5km/h 39.9% 0.00in /  0mm 208 W/m2
18:09 90.2 °F /  32.3 °C 62.6 °F /  17 °C 30.01in /  1016.1hPa East 6.7mph /  10.8km/h 12mph /  19.3km/h 40% 0.00in /  0mm 190 W/m2
18:14 90.1 °F /  32.3 °C 62.8 °F /  17.1 °C 30.01in /  1016.1hPa East 6.7mph /  10.8km/h 7mph /  11.3km/h 40.3% 0.00in /  0mm 179 W/m2
18:19 90 °F /  32.2 °C 63.2 °F /  17.3 °C 30.01in /  1016.1hPa East 7mph /  11.3km/h 7mph /  11.3km/h 41.1% 0.00in /  0mm 167 W/m2
18:24 89.8 °F /  32.1 °C 63.4 °F /  17.4 °C 30.01in /  1016.1hPa East 7mph /  11.3km/h 7mph /  11.3km/h 41.7% 0.00in /  0mm 154 W/m2
18:29 89.7 °F /  32.1 °C 63.6 °F /  17.6 °C 30.01in /  1016.1hPa ENE 5.8mph /  9.3km/h 8mph /  12.9km/h 42% 0.00in /  0mm 139 W/m2
18:34 89.5 °F /  31.9 °C 63.6 °F /  17.6 °C 30.01in /  1016.1hPa NE 5.1mph /  8.2km/h 8mph /  12.9km/h 42.4% 0.00in /  0mm 126 W/m2
18:39 89.2 °F /  31.8 °C 63.3 °F /  17.4 °C 30.01in /  1016.1hPa NNE 4.6mph /  7.4km/h 2.2mph /  3.5km/h 42.3% 0.00in /  0mm 112 W/m2
18:44 89 °F /  31.7 °C 63.1 °F /  17.3 °C 30.01in /  1016.1hPa NE 4.8mph /  7.7km/h 7mph /  11.3km/h 42.3% 0.00in /  0mm 99 W/m2
18:49 88.7 °F /  31.5 °C 63.5 °F /  17.5 °C 30.01in /  1016.1hPa NE 3.7mph /  6km/h 6mph /  9.7km/h 43.3% 0.00in /  0mm 87 W/m2
18:54 88.4 °F /  31.3 °C 63.8 °F /  17.7 °C 30.01in /  1016.1hPa NE 2.8mph /  4.5km/h 6mph /  9.7km/h 44.1% 0.00in /  0mm 77 W/m2
18:59 87.9 °F /  31.1 °C 63.5 °F /  17.5 °C 30.01in /  1016.1hPa NW 2.9mph /  4.7km/h 5mph /  8km/h 44.3% 0.00in /  0mm 66 W/m2
19:04 87.5 °F /  30.8 °C 63.6 °F /  17.6 °C 30.01in /  1016.1hPa NW 4.5mph /  7.2km/h 3mph /  4.8km/h 45% 0.00in /  0mm 57 W/m2
19:09 87.2 °F /  30.7 °C 63.2 °F /  17.3 °C 30.01in /  1016.1hPa NW 4.1mph /  6.6km/h 6mph /  9.7km/h 45% 0.00in /  0mm 47 W/m2
19:14 86.8 °F /  30.4 °C 63.7 °F /  17.6 °C 30.01in /  1016.1hPa NW 1.9mph /  3.1km/h 6mph /  9.7km/h 46.3% 0.00in /  0mm 38 W/m2
19:19 86.5 °F /  30.3 °C 63.4 °F /  17.4 °C 30.01in /  1016.1hPa WNW 3.9mph /  6.3km/h 2.5mph /  4km/h 46.2% 0.00in /  0mm 30 W/m2
19:24 86.1 °F /  30.1 °C 62.4 °F /  16.9 °C 30.01in /  1016.1hPa NNW 3.8mph /  6.1km/h 5mph /  8km/h 45.2% 0.00in /  0mm 24 W/m2
19:29 85.7 °F /  29.8 °C 62.8 °F /  17.1 °C 30.02in /  1016.5hPa NNW 4mph /  6.4km/h 5mph /  8km/h 46.3% 0.00in /  0mm 17 W/m2
19:34 85.5 °F /  29.7 °C 62.9 °F /  17.2 °C 30.02in /  1016.5hPa North 4.9mph /  7.9km/h 5mph /  8km/h 46.9% 0.00in /  0mm 11 W/m2
19:39 85.2 °F /  29.6 °C 62.8 °F /  17.1 °C 30.02in /  1016.5hPa North 4.9mph /  7.9km/h 6mph /  9.7km/h 47.2% 0.00in /  0mm 8 W/m2
19:44 84.8 °F /  29.3 °C 62.6 °F /  17 °C 30.03in /  1016.8hPa North 5.4mph /  8.7km/h 6mph /  9.7km/h 47.4% 0.00in /  0mm 5 W/m2
19:49 84.5 °F /  29.2 °C 62.7 °F /  17.1 °C 30.03in /  1016.8hPa North 4.2mph /  6.8km/h 6mph /  9.7km/h 48.1% 0.00in /  0mm 3 W/m2
19:54 84.1 °F /  28.9 °C 62.3 °F /  16.8 °C 30.03in /  1016.8hPa NNW 5.7mph /  9.2km/h 6mph /  9.7km/h 48% 0.00in /  0mm 2 W/m2
19:59 83.8 °F /  28.8 °C 62 °F /  16.7 °C 30.03in /  1016.8hPa NNW 4.3mph /  6.9km/h 8mph /  12.9km/h 48% 0.00in /  0mm 1 W/m2
20:04 83.5 °F /  28.6 °C 61.7 °F /  16.5 °C 30.03in /  1016.8hPa North 5mph /  8km/h 6mph /  9.7km/h 48% 0.00in /  0mm 0 W/m2
20:09 83.3 °F /  28.5 °C 61.9 °F /  16.6 °C 30.03in /  1016.8hPa North 5.4mph /  8.7km/h 6mph /  9.7km/h 48.5% 0.00in /  0mm 0 W/m2
20:14 83 °F /  28.3 °C 62.1 °F /  16.7 °C 30.04in /  1017.2hPa North 3.9mph /  6.3km/h 6mph /  9.7km/h 49.3% 0.00in /  0mm 0 W/m2
20:15 82.9 °F /  28.3 °C 61.8 °F /  16.6 °C 30.04in /  1017.2hPa North 0.6mph /  1km/h 5mph /  8km/h 49% 0.00in /  0mm 0 W/m2
20:20 82.1 °F /  27.8 °C 62.7 °F /  17.1 °C 30.04in /  1017.2hPa East 2mph /  3.2km/h 4mph /  6.4km/h 52% 0.00in /  0mm 0 W/m2
20:25 81.2 °F /  27.3 °C 62.5 °F /  16.9 °C 30.04in /  1017.2hPa Calm   4mph /  6.4km/h 53% 0.00in /  0mm 0 W/m2
20:30 80.5 °F /  26.9 °C 62.3 °F /  16.8 °C 30.04in /  1017.2hPa South 1mph /  1.6km/h 3mph /  4.8km/h 54% 0.00in /  0mm 0 W/m2
20:35 80 °F /  26.7 °C 61.8 °F /  16.6 °C 30.04in /  1017.2hPa Calm   3mph /  4.8km/h 54% 0.00in /  0mm 0 W/m2
20:40 79.6 °F /  26.4 °C 62 °F /  16.7 °C 30.05in /  1017.5hPa Calm   2mph /  3.2km/h 55% 0.00in /  0mm 0 W/m2
20:45 79.2 °F /  26.2 °C 61.6 °F /  16.4 °C 30.06in /  1017.8hPa WNW 2mph /  3.2km/h 4mph /  6.4km/h 55% 0.00in /  0mm 0 W/m2
20:50 78.6 °F /  25.9 °C 62.1 °F /  16.7 °C 30.06in /  1017.8hPa NNW 2mph /  3.2km/h 7mph /  11.3km/h 57% 0.00in /  0mm 0 W/m2
20:55 78.6 °F /  25.9 °C 62.1 °F /  16.7 °C 30.06in /  1017.8hPa SSW 2mph /  3.2km/h 7mph /  11.3km/h 57% 0.00in /  0mm 0 W/m2
21:00 78.4 °F /  25.8 °C 62.9 °F /  17.2 °C 30.06in /  1017.8hPa SSW 2mph /  3.2km/h 4mph /  6.4km/h 59% 0.00in /  0mm 0 W/m2
21:15 78.4 °F /  25.8 °C 62.9 °F /  17.2 °C 30.07in /  1018.2hPa SW 2mph /  3.2km/h 4mph /  6.4km/h 59% 0.00in /  0mm 0 W/m2
21:20 78.3 °F /  25.7 °C 63.2 °F /  17.3 °C 30.07in /  1018.2hPa West 2mph /  3.2km/h 5mph /  8km/h 60% 0.00in /  0mm 0 W/m2
21:30 78.3 °F /  25.7 °C 64.2 °F /  17.9 °C 30.07in /  1018.2hPa WNW 3mph /  4.8km/h 8mph /  12.9km/h 62% 0.00in /  0mm 0 W/m2
21:40 78.4 °F /  25.8 °C 64.3 °F /  17.9 °C 30.06in /  1017.8hPa NNW 6mph /  9.7km/h 10mph /  16.1km/h 62% 0.00in /  0mm 0 W/m2
21:45 78.6 °F /  25.9 °C 64.5 °F /  18.1 °C 30.06in /  1017.8hPa NNW 9mph /  14.5km/h 13mph /  20.9km/h 62% 0.00in /  0mm 0 W/m2
21:50 79 °F /  26.1 °C 63.9 °F /  17.7 °C 30.06in /  1017.8hPa NNW 5mph /  8km/h 13mph /  20.9km/h 60% 0.00in /  0mm 0 W/m2
21:55 79.2 °F /  26.2 °C 65 °F /  18.3 °C 30.06in /  1017.8hPa NNW 5mph /  8km/h 10mph /  16.1km/h 62% 0.00in /  0mm 0 W/m2
22:00 79 °F /  26.1 °C 64.8 °F /  18.2 °C 30.06in /  1017.8hPa North 5mph /  8km/h 10mph /  16.1km/h 62% 0.00in /  0mm 0 W/m2
22:10 77.4 °F /  25.2 °C 63.3 °F /  17.4 °C 30.07in /  1018.2hPa SSE 3mph /  4.8km/h 7mph /  11.3km/h 62% 0.00in /  0mm 0 W/m2
22:15 77.2 °F /  25.1 °C 63.2 °F /  17.3 °C 30.06in /  1017.8hPa SSW 2mph /  3.2km/h 4mph /  6.4km/h 62% 0.00in /  0mm 0 W/m2
22:20 77 °F /  25 °C 63.4 °F /  17.4 °C 30.06in /  1017.8hPa WNW 2mph /  3.2km/h 5mph /  8km/h 63% 0.00in /  0mm 0 W/m2
22:25 76.6 °F /  24.8 °C 63 °F /  17.2 °C 30.06in /  1017.8hPa West 2mph /  3.2km/h 6mph /  9.7km/h 63% 0.00in /  0mm 0 W/m2
22:35 74.9 °F /  23.8 °C 62.4 °F /  16.9 °C 30.06in /  1017.8hPa SSW 1mph /  1.6km/h 5mph /  8km/h 65% 0.00in /  0mm 0 W/m2
22:40 74.7 °F /  23.7 °C 62.1 °F /  16.7 °C 30.06in /  1017.8hPa SSW 1mph /  1.6km/h 3mph /  4.8km/h 65% 0.00in /  0mm 0 W/m2
22:45 74.2 °F /  23.4 °C 62.6 °F /  17 °C 30.06in /  1017.8hPa SSW 2mph /  3.2km/h 4mph /  6.4km/h 67% 0.00in /  0mm 0 W/m2
22:50 73.8 °F /  23.2 °C 62.1 °F /  16.7 °C 30.06in /  1017.8hPa South 2mph /  3.2km/h 5mph /  8km/h 67% 0.00in /  0mm 0 W/m2
22:55 73.4 °F /  23 °C 62.2 °F /  16.8 °C 30.06in /  1017.8hPa SSE 1mph /  1.6km/h 4mph /  6.4km/h 68% 0.00in /  0mm 0 W/m2
23:00 73.2 °F /  22.9 °C 62 °F /  16.7 °C 30.06in /  1017.8hPa Calm   3mph /  4.8km/h 68% 0.00in /  0mm 0 W/m2
23:10 72.9 °F /  22.7 °C 62.1 °F /  16.7 °C 30.07in /  1018.2hPa Calm   2mph /  3.2km/h 69% 0.00in /  0mm 0 W/m2
23:15 72.7 °F /  22.6 °C 61.9 °F /  16.6 °C 30.07in /  1018.2hPa Calm   2mph /  3.2km/h 69% 0.00in /  0mm 0 W/m2
23:20 72.4 °F /  22.4 °C 62.1 °F /  16.7 °C 30.07in /  1018.2hPa SSW 1mph /  1.6km/h 3mph /  4.8km/h 70% 0.00in /  0mm 0 W/m2
23:25 72.2 °F /  22.3 °C 62.3 °F /  16.8 °C 30.07in /  1018.2hPa ESE 1mph /  1.6km/h 2mph /  3.2km/h 71% 0.00in /  0mm 0 W/m2
23:35 71.8 °F /  22.1 °C 62.3 °F /  16.8 °C 30.07in /  1018.2hPa WNW 1mph /  1.6km/h 4mph /  6.4km/h 72% 0.00in /  0mm 0 W/m2
23:40 71.6 °F /  22 °C 62.1 °F /  16.7 °C 30.07in /  1018.2hPa WNW 1mph /  1.6km/h 3mph /  4.8km/h 72% 0.00in /  0mm 0 W/m2
23:45 71.4 °F /  21.9 °C 62.3 °F /  16.8 °C 30.07in /  1018.2hPa NW 1mph /  1.6km/h 2mph /  3.2km/h 73% 0.00in /  0mm 0 W/m2
23:50 71.2 °F /  21.8 °C 62.1 °F /  16.7 °C 30.07in /  1018.2hPa Calm   3mph /  4.8km/h 73% 0.00in /  0mm 0 W/m2
23:55 71 °F /  21.7 °C 61.9 °F /  16.6 °C 30.07in /  1018.2hPa Calm   3mph /  4.8km/h 73% 0.00in /  0mm 0 W/m2
Knjazevac, Serbia
Compliments of Weather Underground - 2 mb